大阪市立科学館学芸員 江越航のホームページ  大阪市立科学館 学芸員

 江越 航のホームページ

大阪市立科学館 屋上ライブカメラ

現在の科学館上空の様子
ライブカメラ

環境データ

過去24時間の環境変化
環境トレンド
凡例
過去1週間の環境変化
気象データ

数値計算データ(NOAA)

海面更正気圧 地表付近の風
海面更正気圧 地表付近の風
850hPa面の温度 850hPa面の相対湿度
850hPa面の温度 850hPa面の相対湿度

定時航空実況気象通報式(METAR)

大阪空港 定時航空実況気象通報式
09日20時00分(JST)
RJOO 091100Z 31005KT 9999 FEW030 08/04 Q1024 RMK 1CU030 A3026
CU 積雲
雲量 :1/8
雲底高度 :3000 feet

関西国際空港 定時航空実況気象通報式
09日20時30分(JST)
RJBB 091130Z 15004KT 9999 FEW030 10/06 Q1024 NOSIG

気象庁XML 受信データ

大阪府府県天気予報
2019-12-09T17:00:00+09:00
今夜 晴れ

府県天気概況
2019-12-09T16:32:00+09:00
 大阪府は、日本の東に中心を持つ高気圧に覆われて晴れています。

 9日の大阪府は、高気圧に覆われて晴れるでしょう。

 10日の大阪府は、高気圧に覆われて晴れる見込みです。

【近畿地方】
 近畿地方は、日本の東に中心を持つ高気圧に覆われて、おおむね晴れています。

 9日の近畿地方は、高気圧に覆われておおむね晴れるでしょう。

 10日の近畿地方は、高気圧に覆われておおむね晴れる見込みです。